createdAt,value
2018-03-29T00:00:34.823Z,991.95
2018-03-29T00:01:44.264Z,991.94
2018-03-29T00:02:54.230Z,991.92
2018-03-29T00:04:04.198Z,991.93
2018-03-29T00:05:14.172Z,991.87
2018-03-29T00:06:23.868Z,991.86
2018-03-29T00:07:33.564Z,991.82
2018-03-29T00:08:43.272Z,991.75
2018-03-29T00:09:52.737Z,991.78
2018-03-29T00:11:02.698Z,991.76
2018-03-29T00:12:12.135Z,991.74
2018-03-29T00:13:22.115Z,991.75
2018-03-29T00:14:32.081Z,991.73
2018-03-29T00:15:41.778Z,991.71
2018-03-29T00:16:51.748Z,991.71
2018-03-29T00:18:01.192Z,991.71
2018-03-29T00:19:11.152Z,991.67
2018-03-29T00:20:20.848Z,991.68
2018-03-29T00:21:30.810Z,991.65
2018-03-29T00:22:40.512Z,991.62
2018-03-29T00:23:50.212Z,991.58
2018-03-29T00:24:59.642Z,991.5
2018-03-29T00:26:09.340Z,991.56
2018-03-29T00:27:18.789Z,991.5
2018-03-29T00:28:28.477Z,991.47
2018-03-29T00:29:38.441Z,991.47
2018-03-29T00:30:47.889Z,991.46
2018-03-29T00:31:57.879Z,991.46
2018-03-29T00:33:07.841Z,991.48
2018-03-29T00:34:17.800Z,991.42
2018-03-29T00:35:27.778Z,991.39
2018-03-29T00:36:37.733Z,991.41
2018-03-29T00:37:47.709Z,991.4
2018-03-29T00:38:57.421Z,991.43
2018-03-29T00:40:06.869Z,991.45
2018-03-29T00:41:16.568Z,991.45
2018-03-29T00:42:26.302Z,991.39
2018-03-29T00:43:36.257Z,991.37
2018-03-29T00:44:45.968Z,991.35
2018-03-29T00:45:55.923Z,991.31
2018-03-29T00:47:05.633Z,991.35
2018-03-29T00:48:15.617Z,991.32
2018-03-29T00:49:25.573Z,991.26
2018-03-29T00:50:35.270Z,991.27
2018-03-29T00:51:44.982Z,991.24
2018-03-29T00:52:54.950Z,991.25
2018-03-29T00:54:04.941Z,991.26
2018-03-29T00:55:14.897Z,991.23
2018-03-29T00:56:24.862Z,991.26
2018-03-29T00:57:34.561Z,991.25
2018-03-29T00:58:44.521Z,991.21
2018-03-29T00:59:54.477Z,991.23
2018-03-29T01:01:04.441Z,991.21
2018-03-29T01:02:14.153Z,991.22
2018-03-29T01:03:24.128Z,991.14
2018-03-29T01:04:34.088Z,991.15
2018-03-29T01:05:44.120Z,991.16
2018-03-29T01:06:54.076Z,991.15
2018-03-29T01:08:04.022Z,991.16
2018-03-29T01:09:13.716Z,991.12
2018-03-29T01:10:23.667Z,991.13
2018-03-29T01:11:33.362Z,991.08
2018-03-29T01:12:43.067Z,991.1
2018-03-29T01:13:53.021Z,991.1
2018-03-29T01:15:02.981Z,991.11
2018-03-29T01:16:12.681Z,991.13
2018-03-29T01:17:22.641Z,991.11
2018-03-29T01:18:32.360Z,991.08
2018-03-29T01:19:42.311Z,991.14
2018-03-29T01:20:52.003Z,991.16
2018-03-29T01:22:01.994Z,991.11
2018-03-29T01:23:11.951Z,991.05
2018-03-29T01:24:21.659Z,991.08
2018-03-29T01:25:31.404Z,991.05
2018-03-29T01:26:41.098Z,991.05
2018-03-29T01:27:50.279Z,991.09
2018-03-29T01:29:00.254Z,991.11
2018-03-29T01:30:09.947Z,991.09
2018-03-29T01:31:19.383Z,991.13
2018-03-29T01:32:29.086Z,991.1
2018-03-29T01:33:39.050Z,991.03
2018-03-29T01:34:49.012Z,990.99
2018-03-29T01:35:58.193Z,990.99
2018-03-29T01:37:08.140Z,990.9
2018-03-29T01:38:17.835Z,990.98
2018-03-29T01:39:27.536Z,990.94
2018-03-29T01:40:37.263Z,990.94
2018-03-29T01:41:46.677Z,990.98
2018-03-29T01:42:56.637Z,990.98
2018-03-29T01:44:06.603Z,991
2018-03-29T01:45:16.305Z,991.01
2018-03-29T01:46:26.008Z,991.05
2018-03-29T01:47:35.708Z,991.06
2018-03-29T01:48:45.678Z,991.04
2018-03-29T01:49:55.110Z,991.05
2018-03-29T01:51:05.085Z,991.05
2018-03-29T01:52:14.788Z,991.02
2018-03-29T01:53:24.222Z,990.99
2018-03-29T01:54:33.669Z,991
2018-03-29T01:55:43.102Z,991.02
2018-03-29T01:56:53.067Z,990.98
2018-03-29T01:58:02.526Z,990.97
2018-03-29T01:59:12.518Z,990.91
2018-03-29T02:00:22.229Z,990.98
2018-03-29T02:01:31.915Z,990.99
2018-03-29T02:02:41.621Z,991.01
2018-03-29T02:03:51.588Z,991.03
2018-03-29T02:05:01.027Z,990.95
2018-03-29T02:06:10.473Z,991.01
2018-03-29T02:07:20.452Z,990.99
2018-03-29T02:08:30.417Z,990.95
2018-03-29T02:09:40.374Z,990.92
2018-03-29T02:10:50.342Z,990.89
2018-03-29T02:12:00.294Z,990.89
2018-03-29T02:13:09.729Z,990.96
2018-03-29T02:14:19.692Z,990.96
2018-03-29T02:15:29.649Z,990.87
2018-03-29T02:16:39.345Z,990.92
2018-03-29T02:17:49.321Z,990.92
2018-03-29T02:18:59.270Z,990.93
2018-03-29T02:20:08.961Z,990.98
2018-03-29T02:21:18.657Z,991
2018-03-29T02:22:28.362Z,990.99
2018-03-29T02:23:38.324Z,991.05
2018-03-29T02:24:48.028Z,991.05
2018-03-29T02:25:57.766Z,991.08
2018-03-29T02:27:07.213Z,991.04
2018-03-29T02:28:17.217Z,991.09
2018-03-29T02:29:26.938Z,991.13
2018-03-29T02:30:36.899Z,991.22
2018-03-29T02:31:46.367Z,991.3
2018-03-29T02:32:56.064Z,991.44
2018-03-29T02:34:05.781Z,991.45
2018-03-29T02:35:15.763Z,991.38
2018-03-29T02:36:25.466Z,991.34
2018-03-29T02:37:35.170Z,991.35
2018-03-29T02:38:45.147Z,991.27
2018-03-29T02:39:54.647Z,991.27
2018-03-29T02:41:04.350Z,991.36
2018-03-29T02:42:14.057Z,991.3
2018-03-29T02:43:23.493Z,991.3
2018-03-29T02:44:33.208Z,991.23
2018-03-29T02:45:43.194Z,991.19
2018-03-29T02:46:53.221Z,991.28
2018-03-29T02:48:02.948Z,991.28
2018-03-29T02:49:12.653Z,991.28
2018-03-29T02:50:22.113Z,991.29
2018-03-29T02:51:32.084Z,991.29
2018-03-29T02:52:41.798Z,991.28
2018-03-29T02:53:51.527Z,991.35
2018-03-29T02:55:01.248Z,991.32
2018-03-29T02:56:11.009Z,991.34
2018-03-29T02:57:20.963Z,991.34
2018-03-29T02:58:30.674Z,991.35
2018-03-29T02:59:40.375Z,991.45
2018-03-29T03:00:50.083Z,991.43
2018-03-29T03:01:59.794Z,991.47
2018-03-29T03:03:09.492Z,991.48
2018-03-29T03:04:19.443Z,991.48
2018-03-29T03:05:29.152Z,991.48
2018-03-29T03:06:39.126Z,991.48
2018-03-29T03:07:48.572Z,991.42
2018-03-29T03:08:57.756Z,991.49
2018-03-29T03:10:07.755Z,991.5
2018-03-29T03:11:17.704Z,991.48
2018-03-29T03:12:27.395Z,991.51
2018-03-29T03:13:37.091Z,991.48
2018-03-29T03:14:46.792Z,991.5
2018-03-29T03:15:56.241Z,991.52
2018-03-29T03:17:05.684Z,991.57
2018-03-29T03:18:15.791Z,991.66
2018-03-29T03:19:25.526Z,991.8
2018-03-29T03:20:35.257Z,991.67
2018-03-29T03:21:45.221Z,991.78
2018-03-29T03:22:54.913Z,991.68
2018-03-29T03:24:04.605Z,991.78
2018-03-29T03:25:13.787Z,991.68
2018-03-29T03:26:23.496Z,991.73
2018-03-29T03:27:33.206Z,991.77
2018-03-29T03:28:43.158Z,991.79
2018-03-29T03:29:52.857Z,991.81
2018-03-29T03:31:02.043Z,991.81
2018-03-29T03:32:11.754Z,991.82
2018-03-29T03:33:21.447Z,991.89
2018-03-29T03:34:31.434Z,991.86
2018-03-29T03:35:41.124Z,991.91
2018-03-29T03:36:51.078Z,991.92
2018-03-29T03:38:00.516Z,991.98
2018-03-29T03:39:10.486Z,992.03
2018-03-29T03:40:20.195Z,992.02
2018-03-29T03:41:30.153Z,992
2018-03-29T03:42:40.102Z,992.16
2018-03-29T03:43:50.076Z,992.08
2018-03-29T03:44:59.510Z,992.08
2018-03-29T03:46:09.202Z,992.15
2018-03-29T03:47:18.383Z,992.2
2018-03-29T03:48:28.076Z,992.2
2018-03-29T03:49:38.049Z,992.31
2018-03-29T03:50:48.009Z,992.13
2018-03-29T03:51:57.708Z,992.21
2018-03-29T03:53:07.146Z,992.32
2018-03-29T03:54:16.844Z,992.59
2018-03-29T03:55:26.820Z,992.49
2018-03-29T03:56:36.769Z,992.21
2018-03-29T03:57:47.032Z,992.44
2018-03-29T03:58:56.983Z,992.53
2018-03-29T04:00:06.959Z,992.31
2018-03-29T04:01:16.916Z,992.34
2018-03-29T04:02:26.357Z,992.31
2018-03-29T04:03:36.312Z,992.45
2018-03-29T04:04:46.018Z,992.48
2018-03-29T04:05:55.718Z,992.46
2018-03-29T04:07:05.684Z,992.79
2018-03-29T04:08:15.640Z,992.59
2018-03-29T04:09:25.383Z,992.46
2018-03-29T04:10:35.077Z,992.7
2018-03-29T04:11:45.033Z,992.49
2018-03-29T04:12:54.982Z,992.49
2018-03-29T04:14:04.680Z,992.66
2018-03-29T04:15:14.760Z,992.54
2018-03-29T04:16:24.457Z,992.65
2018-03-29T04:17:34.161Z,992.65
2018-03-29T04:18:44.138Z,992.87
2018-03-29T04:19:54.090Z,992.61
2018-03-29T04:21:04.160Z,993
2018-03-29T04:22:14.119Z,992.73
2018-03-29T04:23:24.076Z,992.69
2018-03-29T04:24:33.785Z,992.88
2018-03-29T04:25:43.735Z,992.66
2018-03-29T04:26:53.700Z,992.72
2018-03-29T04:28:03.415Z,992.78
2018-03-29T04:29:13.124Z,992.79
2018-03-29T04:30:23.083Z,992.82
2018-03-29T04:31:33.046Z,992.82
2018-03-29T04:32:42.738Z,992.81
2018-03-29T04:33:52.425Z,992.92
2018-03-29T04:35:01.866Z,992.98
2018-03-29T04:36:11.577Z,992.92
2018-03-29T04:37:21.277Z,992.9
2018-03-29T04:38:30.711Z,992.97
2018-03-29T04:39:39.625Z,992.9
2018-03-29T04:40:49.338Z,993.52
2018-03-29T04:41:58.529Z,993.05
2018-03-29T04:43:08.512Z,993.14
2018-03-29T04:44:17.964Z,993.03
2018-03-29T04:45:27.663Z,993.18
2018-03-29T04:46:37.364Z,993.04
2018-03-29T04:47:47.062Z,993.08
2018-03-29T04:48:56.496Z,993.23
2018-03-29T04:50:05.947Z,993.34
2018-03-29T04:51:15.387Z,993.83
2018-03-29T04:52:25.373Z,993.3
2018-03-29T04:53:34.819Z,993.47
2018-03-29T04:54:44.517Z,993.49
2018-03-29T04:55:54.468Z,993.47
2018-03-29T04:57:04.436Z,993.44
2018-03-29T04:58:14.131Z,993.45
2018-03-29T04:59:23.815Z,993.57
2018-03-29T05:00:33.764Z,993.5
2018-03-29T05:01:43.467Z,993.67
2018-03-29T05:02:53.429Z,993.69
2018-03-29T05:04:02.870Z,993.65
2018-03-29T05:05:12.572Z,993.71
2018-03-29T05:06:22.535Z,993.69
2018-03-29T05:07:32.021Z,993.78
2018-03-29T05:08:42.119Z,993.74
2018-03-29T05:09:51.569Z,993.69
2018-03-29T05:11:01.525Z,993.75
2018-03-29T05:12:11.502Z,994.11
2018-03-29T05:13:21.201Z,993.9
2018-03-29T05:14:30.902Z,993.95
2018-03-29T05:15:40.862Z,993.76
2018-03-29T05:16:50.575Z,993.76
2018-03-29T05:18:00.030Z,993.84
2018-03-29T05:19:09.480Z,994.16
2018-03-29T05:20:19.431Z,994.29
2018-03-29T05:21:29.163Z,993.96
2018-03-29T05:22:39.141Z,993.89
2018-03-29T05:23:48.848Z,993.97
2018-03-29T05:24:58.821Z,994.19
2018-03-29T05:26:08.783Z,993.88
2018-03-29T05:27:18.374Z,994.3
2018-03-29T05:28:28.342Z,994.19
2018-03-29T05:29:38.058Z,994.06
2018-03-29T05:30:47.757Z,994.05
2018-03-29T05:31:57.449Z,994.05
2018-03-29T05:33:06.899Z,994.04
2018-03-29T05:34:16.076Z,994.12
2018-03-29T05:35:26.060Z,994.17
2018-03-29T05:36:35.503Z,994.23
2018-03-29T05:37:45.218Z,994.05
2018-03-29T05:38:54.922Z,994.34
2018-03-29T05:40:04.647Z,994.24
2018-03-29T05:41:14.493Z,994.18
2018-03-29T05:42:24.189Z,994.29
2018-03-29T05:43:34.175Z,994.26
2018-03-29T05:44:44.142Z,994.27
2018-03-29T05:45:53.846Z,994.47
2018-03-29T05:47:03.845Z,994.43
2018-03-29T05:48:13.569Z,994.61
2018-03-29T05:49:23.531Z,994.45
2018-03-29T05:50:33.228Z,994.55
2018-03-29T05:51:43.190Z,994.56
2018-03-29T05:52:53.170Z,994.54
2018-03-29T05:54:02.875Z,994.56
2018-03-29T05:55:12.853Z,994.72
2018-03-29T05:56:22.564Z,994.62
2018-03-29T05:57:32.539Z,994.73
2018-03-29T05:58:42.358Z,994.83
2018-03-29T05:59:52.320Z,994.59
2018-03-29T06:01:02.025Z,994.8
2018-03-29T06:02:11.991Z,994.64
2018-03-29T06:03:21.443Z,994.89
2018-03-29T06:04:31.138Z,994.72
2018-03-29T06:05:40.580Z,994.74
2018-03-29T06:06:50.528Z,994.71
2018-03-29T06:07:59.727Z,994.76
2018-03-29T06:09:09.432Z,994.74
2018-03-29T06:10:18.871Z,994.85
2018-03-29T06:11:28.573Z,995.01
2018-03-29T06:12:38.532Z,994.83
2018-03-29T06:13:48.497Z,994.8
2018-03-29T06:14:58.474Z,994.81
2018-03-29T06:16:07.928Z,994.8
2018-03-29T06:17:17.369Z,994.78
2018-03-29T06:18:26.805Z,994.81
2018-03-29T06:19:36.244Z,994.83
2018-03-29T06:20:46.208Z,994.76
2018-03-29T06:21:55.653Z,995.04
2018-03-29T06:23:05.366Z,994.94
2018-03-29T06:24:15.527Z,994.85
2018-03-29T06:25:25.490Z,994.85
2018-03-29T06:26:35.193Z,994.85
2018-03-29T06:27:45.161Z,994.91
2018-03-29T06:28:54.610Z,994.93
2018-03-29T06:30:03.797Z,994.92
2018-03-29T06:31:13.613Z,994.82
2018-03-29T06:32:23.584Z,994.91
2018-03-29T06:33:33.566Z,994.99
2018-03-29T06:34:43.517Z,995
2018-03-29T06:35:53.239Z,995.14
2018-03-29T06:37:02.937Z,995.01
2018-03-29T06:38:12.655Z,994.96
2018-03-29T06:39:22.631Z,994.98
2018-03-29T06:40:32.607Z,995.05
2018-03-29T06:41:42.053Z,995.01
2018-03-29T06:42:51.499Z,995.06
2018-03-29T06:44:01.195Z,995.04
2018-03-29T06:45:11.164Z,995.03
2018-03-29T06:46:20.624Z,995.07
2018-03-29T06:47:30.685Z,995.16
2018-03-29T06:48:40.644Z,995.1
2018-03-29T06:49:50.356Z,995.18
2018-03-29T06:50:59.808Z,995.19
2018-03-29T06:52:09.266Z,995
2018-03-29T06:53:18.969Z,995.29
2018-03-29T06:54:28.934Z,995.19
2018-03-29T06:55:38.915Z,995.31
2018-03-29T06:56:48.616Z,995.3
2018-03-29T06:57:58.321Z,995.35
2018-03-29T06:59:08.292Z,995.29
2018-03-29T07:00:18.245Z,995.25
2018-03-29T07:01:28.202Z,995.32
2018-03-29T07:02:38.169Z,995.3
2018-03-29T07:03:47.609Z,995.37
2018-03-29T07:04:57.318Z,995.27
2018-03-29T07:06:07.306Z,995.39
2018-03-29T07:07:17.266Z,995.78
2018-03-29T07:08:27.229Z,995.38
2018-03-29T07:09:36.948Z,995.4
2018-03-29T07:10:46.390Z,995.39
2018-03-29T07:11:55.836Z,995.38
2018-03-29T07:13:05.805Z,995.5
2018-03-29T07:14:15.524Z,995.43
2018-03-29T07:15:25.502Z,995.51
2018-03-29T07:16:35.464Z,995.6
2018-03-29T07:17:45.179Z,995.51
2018-03-29T07:18:54.626Z,995.7
2018-03-29T07:20:04.081Z,995.57
2018-03-29T07:21:13.529Z,995.58
2018-03-29T07:22:22.968Z,995.63
2018-03-29T07:23:32.674Z,995.7
2018-03-29T07:24:42.378Z,995.84
2018-03-29T07:25:51.557Z,995.7
2018-03-29T07:27:01.577Z,995.71
2018-03-29T07:28:11.573Z,995.65
2018-03-29T07:29:21.530Z,995.68
2018-03-29T07:30:30.990Z,995.67
2018-03-29T07:31:40.990Z,995.49
2018-03-29T07:32:50.948Z,995.73
2018-03-29T07:34:00.398Z,995.65
2018-03-29T07:35:10.356Z,995.79
2018-03-29T07:36:20.060Z,995.83
2018-03-29T07:37:29.554Z,995.8
2018-03-29T07:38:39.519Z,995.7
2018-03-29T07:39:49.480Z,995.85
2018-03-29T07:40:59.464Z,995.79
2018-03-29T07:42:09.436Z,995.98
2018-03-29T07:43:19.143Z,995.82
2018-03-29T07:44:28.582Z,995.96
2018-03-29T07:45:38.540Z,995.85
2018-03-29T07:46:47.983Z,995.91
2018-03-29T07:47:57.700Z,996.06
2018-03-29T07:49:07.151Z,996.21
2018-03-29T07:50:17.123Z,996.02
2018-03-29T07:51:27.088Z,996.27
2018-03-29T07:52:37.065Z,995.95
2018-03-29T07:53:47.031Z,996.2
2018-03-29T07:54:56.748Z,996.07
2018-03-29T07:56:06.188Z,996.2
2018-03-29T07:57:16.174Z,996.15
2018-03-29T07:58:25.623Z,996.11
2018-03-29T07:59:35.606Z,996.16
2018-03-29T08:00:45.584Z,996.14
2018-03-29T08:01:55.283Z,996.2
2018-03-29T08:03:04.467Z,996.27
2018-03-29T08:04:13.666Z,996.4
2018-03-29T08:05:23.100Z,996.43
2018-03-29T08:06:33.056Z,996.23
2018-03-29T08:07:42.773Z,996.3
2018-03-29T08:08:52.488Z,996.19
2018-03-29T08:10:02.218Z,996.66
2018-03-29T08:11:11.667Z,996.36
2018-03-29T08:12:21.372Z,996.29
2018-03-29T08:13:31.064Z,996.38
2018-03-29T08:14:40.785Z,996.53
2018-03-29T08:15:50.227Z,996.5
2018-03-29T08:16:59.673Z,996.38
2018-03-29T08:18:09.654Z,996.45
2018-03-29T08:19:19.376Z,996.3
2018-03-29T08:20:29.345Z,996.41
2018-03-29T08:21:39.052Z,996.53
2018-03-29T08:22:48.648Z,996.27
2018-03-29T08:23:58.655Z,996.41
2018-03-29T08:25:08.645Z,996.41
2018-03-29T08:26:18.101Z,996.63
2018-03-29T08:27:27.839Z,996.44
2018-03-29T08:28:37.553Z,996.53
2018-03-29T08:29:47.001Z,996.55
2018-03-29T08:30:56.451Z,996.47
2018-03-29T08:32:05.895Z,996.71
2018-03-29T08:33:15.862Z,996.55
2018-03-29T08:34:25.820Z,996.71
2018-03-29T08:35:35.262Z,996.66
2018-03-29T08:36:44.975Z,996.65
2018-03-29T08:37:54.674Z,996.99
2018-03-29T08:39:03.863Z,996.6
2018-03-29T08:40:13.833Z,996.65
2018-03-29T08:41:23.804Z,996.74
2018-03-29T08:42:32.989Z,996.86
2018-03-29T08:43:42.971Z,996.82
2018-03-29T08:44:52.674Z,996.94
2018-03-29T08:46:02.652Z,996.96
2018-03-29T08:47:12.355Z,996.81
2018-03-29T08:48:21.794Z,996.83
2018-03-29T08:49:31.559Z,996.99
2018-03-29T08:50:40.999Z,996.79
2018-03-29T08:51:50.974Z,996.88
2018-03-29T08:53:00.419Z,996.88
2018-03-29T08:54:10.132Z,996.93
2018-03-29T08:55:20.112Z,996.87
2018-03-29T08:56:29.820Z,996.96
2018-03-29T08:57:39.532Z,996.77
2018-03-29T08:58:49.238Z,996.96
2018-03-29T08:59:58.967Z,997.01
2018-03-29T09:01:08.687Z,996.86
2018-03-29T09:02:18.391Z,996.96
2018-03-29T09:03:27.850Z,997.1
2018-03-29T09:04:37.556Z,996.93
2018-03-29T09:05:47.268Z,997.15
2018-03-29T09:06:56.716Z,997.28
2018-03-29T09:08:06.442Z,997.03
2018-03-29T09:09:16.149Z,997.02
2018-03-29T09:10:25.659Z,997.05
2018-03-29T09:11:35.104Z,997.2
2018-03-29T09:12:44.552Z,997.17
2018-03-29T09:13:54.254Z,997.04
2018-03-29T09:15:03.697Z,997.21
2018-03-29T09:16:13.143Z,997.09
2018-03-29T09:17:22.847Z,997.28
2018-03-29T09:18:32.801Z,997.12
2018-03-29T09:19:41.997Z,997.22
2018-03-29T09:20:51.836Z,997.23
2018-03-29T09:22:01.291Z,997.15
2018-03-29T09:23:11.001Z,997.09
2018-03-29T09:24:20.710Z,997.14
2018-03-29T09:25:30.678Z,997.21
2018-03-29T09:26:40.386Z,997.15
2018-03-29T09:27:49.845Z,997.13
2018-03-29T09:28:59.811Z,997.33
2018-03-29T09:30:09.524Z,997.24
2018-03-29T09:31:19.243Z,997.27
2018-03-29T09:32:29.204Z,997.3
2018-03-29T09:33:38.400Z,997.35
2018-03-29T09:34:48.118Z,997.41
2018-03-29T09:35:57.838Z,997.34
2018-03-29T09:37:07.292Z,997.31
2018-03-29T09:38:16.737Z,997.42
2018-03-29T09:39:26.718Z,997.41
2018-03-29T09:40:36.432Z,997.26
2018-03-29T09:41:45.904Z,997.25
2018-03-29T09:42:55.642Z,997.25
2018-03-29T09:44:05.614Z,997.57
2018-03-29T09:45:15.348Z,997.41
2018-03-29T09:46:25.331Z,997.65
2018-03-29T09:47:35.034Z,997.43
2018-03-29T09:48:44.799Z,997.45
2018-03-29T09:49:54.774Z,997.47
2018-03-29T09:51:04.508Z,997.58
2018-03-29T09:52:13.947Z,997.54
2018-03-29T09:53:23.663Z,997.61
2018-03-29T09:54:33.369Z,997.53
2018-03-29T09:55:43.095Z,997.52
2018-03-29T09:56:52.817Z,997.61
2018-03-29T09:58:02.555Z,997.56
2018-03-29T09:59:12.549Z,997.5
2018-03-29T10:00:22.541Z,997.59
2018-03-29T10:01:32.331Z,997.66
2018-03-29T10:02:42.351Z,997.65
2018-03-29T10:03:51.753Z,997.51
2018-03-29T10:05:01.531Z,997.6
2018-03-29T10:06:10.988Z,997.53
2018-03-29T10:07:20.949Z,997.59
2018-03-29T10:08:31.082Z,997.6
2018-03-29T10:09:40.530Z,997.81
2018-03-29T10:10:50.522Z,997.98
2018-03-29T10:11:59.991Z,997.51
2018-03-29T10:13:10.003Z,997.6
2018-03-29T10:14:19.990Z,997.47
2018-03-29T10:15:29.710Z,997.39
2018-03-29T10:16:39.674Z,997.52
2018-03-29T10:17:49.126Z,997.46
2018-03-29T10:18:58.852Z,997.59
2018-03-29T10:20:08.297Z,997.94
2018-03-29T10:21:18.012Z,997.64
2018-03-29T10:22:27.987Z,997.48
2018-03-29T10:23:37.442Z,997.62
2018-03-29T10:24:47.160Z,997.57
2018-03-29T10:25:56.606Z,997.53
2018-03-29T10:27:06.312Z,997.52
2018-03-29T10:28:15.769Z,997.77
2018-03-29T10:29:25.497Z,997.57
2018-03-29T10:30:34.941Z,997.86
2018-03-29T10:31:44.933Z,997.83
2018-03-29T10:32:54.648Z,997.78
2018-03-29T10:34:04.095Z,997.8
2018-03-29T10:35:13.804Z,997.83
2018-03-29T10:36:23.252Z,997.98
2018-03-29T10:37:32.960Z,998.05
2018-03-29T10:38:42.928Z,997.71
2018-03-29T10:39:52.903Z,997.83
2018-03-29T10:41:02.615Z,997.79
2018-03-29T10:42:12.689Z,997.8
2018-03-29T10:43:22.151Z,997.77
2018-03-29T10:44:31.870Z,997.79
2018-03-29T10:45:41.569Z,997.78
2018-03-29T10:46:51.540Z,997.8
2018-03-29T10:48:01.258Z,997.81
2018-03-29T10:49:10.983Z,997.88
2018-03-29T10:50:20.698Z,997.8
2018-03-29T10:51:29.890Z,997.75
2018-03-29T10:52:39.121Z,997.74
2018-03-29T10:53:49.109Z,997.7
2018-03-29T10:54:58.573Z,997.82
2018-03-29T10:56:08.547Z,997.89
2018-03-29T10:57:18.521Z,997.81
2018-03-29T10:58:28.499Z,997.9
2018-03-29T10:59:38.229Z,997.95
2018-03-29T11:00:47.996Z,998.05
2018-03-29T11:01:57.978Z,997.9
2018-03-29T11:03:07.680Z,997.87
2018-03-29T11:04:17.724Z,997.97
2018-03-29T11:05:27.695Z,997.87
2018-03-29T11:06:37.674Z,997.83
2018-03-29T11:07:47.115Z,998.07
2018-03-29T11:08:56.824Z,998.21
2018-03-29T11:10:06.554Z,998.21
2018-03-29T11:11:16.257Z,998.06
2018-03-29T11:12:26.237Z,997.94
2018-03-29T11:13:35.946Z,997.99
2018-03-29T11:14:45.931Z,997.99
2018-03-29T11:15:55.905Z,997.98
2018-03-29T11:17:05.377Z,997.96
2018-03-29T11:18:14.593Z,998.16
2018-03-29T11:19:24.309Z,998.06
2018-03-29T11:20:34.015Z,998.14
2018-03-29T11:21:43.207Z,998.15
2018-03-29T11:22:53.171Z,998.05
2018-03-29T11:24:03.145Z,997.99
2018-03-29T11:25:13.124Z,998.08
2018-03-29T11:26:23.091Z,998.1
2018-03-29T11:27:33.067Z,998.1
2018-03-29T11:28:42.782Z,998.19
2018-03-29T11:29:52.507Z,998.13
2018-03-29T11:31:02.472Z,998.14
2018-03-29T11:32:12.445Z,998.05
2018-03-29T11:33:22.149Z,998.2
2018-03-29T11:34:32.288Z,998.27
2018-03-29T11:35:42.266Z,998.13
2018-03-29T11:36:51.974Z,998.15
2018-03-29T11:38:01.678Z,997.98
2018-03-29T11:39:11.642Z,998.08
2018-03-29T11:40:21.626Z,998.32
2018-03-29T11:41:31.649Z,998.51
2018-03-29T11:42:41.632Z,998.3
2018-03-29T11:43:51.602Z,998.38
2018-03-29T11:45:01.569Z,998.23
2018-03-29T11:46:11.543Z,998.36
2018-03-29T11:47:21.258Z,998.52
2018-03-29T11:48:30.959Z,998.3
2018-03-29T11:49:40.667Z,998.43
2018-03-29T11:50:50.635Z,998.32
2018-03-29T11:52:00.338Z,998.39
2018-03-29T11:53:10.306Z,998.32
2018-03-29T11:54:20.271Z,998.3
2018-03-29T11:55:30.009Z,998.48
2018-03-29T11:56:39.969Z,998.65
2018-03-29T11:57:49.953Z,998.47
2018-03-29T11:58:59.973Z,998.43
2018-03-29T12:00:09.946Z,998.45
2018-03-29T12:01:19.667Z,998.52
2018-03-29T12:02:29.406Z,998.49
2018-03-29T12:03:39.387Z,998.51
2018-03-29T12:04:49.098Z,998.65
2018-03-29T12:05:59.078Z,998.43
2018-03-29T12:07:08.793Z,998.42
2018-03-29T12:08:18.787Z,998.52
2018-03-29T12:09:28.760Z,998.47
2018-03-29T12:10:38.730Z,998.54
2018-03-29T12:11:48.727Z,998.44
2018-03-29T12:12:58.694Z,998.5
2018-03-29T12:14:07.897Z,998.41
2018-03-29T12:15:17.355Z,998.4
2018-03-29T12:16:27.320Z,998.66
2018-03-29T12:17:37.043Z,998.72
2018-03-29T12:18:47.015Z,998.41
2018-03-29T12:19:56.729Z,998.44
2018-03-29T12:21:06.696Z,998.49
2018-03-29T12:22:16.656Z,998.63
2018-03-29T12:23:26.629Z,998.62
2018-03-29T12:24:36.606Z,998.63
2018-03-29T12:25:46.568Z,998.69
2018-03-29T12:26:56.542Z,998.45
2018-03-29T12:28:06.526Z,998.65
2018-03-29T12:29:16.507Z,998.45
2018-03-29T12:30:26.221Z,998.51
2018-03-29T12:31:36.210Z,998.4
2018-03-29T12:32:46.176Z,998.56
2018-03-29T12:33:55.905Z,998.56
2018-03-29T12:35:05.877Z,998.51
2018-03-29T12:36:15.853Z,998.56
2018-03-29T12:37:25.312Z,998.55
2018-03-29T12:38:35.277Z,998.58
2018-03-29T12:39:45.239Z,998.56
2018-03-29T12:40:54.999Z,998.4
2018-03-29T12:42:04.981Z,998.66
2018-03-29T12:43:13.914Z,998.59
2018-03-29T12:44:23.415Z,998.6
2018-03-29T12:45:33.433Z,998.65
2018-03-29T12:46:43.435Z,998.61
2018-03-29T12:47:53.061Z,998.82
2018-03-29T12:49:02.762Z,998.67
2018-03-29T12:50:12.734Z,998.8
2018-03-29T12:51:23.072Z,998.61
2018-03-29T12:52:33.042Z,998.65
2018-03-29T12:53:42.759Z,998.85
2018-03-29T12:54:52.865Z,998.65
2018-03-29T12:56:02.867Z,998.73
2018-03-29T12:57:12.846Z,998.77
2018-03-29T12:58:22.836Z,998.78
2018-03-29T12:59:32.794Z,998.93
2018-03-29T13:00:42.766Z,998.77
2018-03-29T13:01:52.738Z,998.87
2018-03-29T13:03:02.712Z,998.78
2018-03-29T13:04:12.698Z,998.73
2018-03-29T13:05:22.432Z,998.74
2018-03-29T13:06:32.162Z,998.93
2018-03-29T13:07:41.610Z,998.71
2018-03-29T13:08:51.334Z,998.88
2018-03-29T13:10:01.050Z,998.81
2018-03-29T13:11:11.039Z,998.74
2018-03-29T13:12:21.012Z,998.78
2018-03-29T13:13:30.477Z,998.84
2018-03-29T13:14:40.455Z,998.78
2018-03-29T13:15:49.642Z,998.93
2018-03-29T13:16:59.118Z,998.94
2018-03-29T13:18:09.088Z,998.82
2018-03-29T13:19:18.796Z,999.01
2018-03-29T13:20:28.751Z,999
2018-03-29T13:21:38.716Z,998.86
2018-03-29T13:22:48.444Z,998.83
2018-03-29T13:23:58.533Z,998.94
2018-03-29T13:25:08.253Z,998.8
2018-03-29T13:26:17.843Z,998.97
2018-03-29T13:27:27.575Z,999.06
2018-03-29T13:28:37.069Z,998.81
2018-03-29T13:29:46.853Z,999.1
2018-03-29T13:30:56.598Z,998.86
2018-03-29T13:32:06.286Z,998.9
2018-03-29T13:33:16.270Z,998.8
2018-03-29T13:34:25.974Z,998.89
2018-03-29T13:35:35.433Z,998.96
2018-03-29T13:36:44.906Z,998.88
2018-03-29T13:37:54.933Z,998.83
2018-03-29T13:39:04.648Z,998.83
2018-03-29T13:40:14.715Z,998.9
2018-03-29T13:41:23.910Z,998.95
2018-03-29T13:42:33.101Z,998.94
2018-03-29T13:43:42.834Z,998.8
2018-03-29T13:44:52.277Z,998.95
2018-03-29T13:46:01.721Z,998.73
2018-03-29T13:47:11.693Z,998.85
2018-03-29T13:48:20.611Z,998.9
2018-03-29T13:49:30.587Z,998.77
2018-03-29T13:50:40.044Z,998.78
2018-03-29T13:51:49.499Z,998.8
2018-03-29T13:52:59.480Z,998.8
2018-03-29T13:54:09.452Z,998.81
2018-03-29T13:55:19.435Z,998.75
2018-03-29T13:56:29.394Z,998.84
2018-03-29T13:57:38.844Z,998.77
2018-03-29T13:58:48.836Z,998.8
2018-03-29T13:59:58.278Z,998.86
2018-03-29T14:01:07.985Z,998.88
2018-03-29T14:02:17.693Z,998.85
2018-03-29T14:03:27.142Z,998.88
2018-03-29T14:04:36.927Z,998.83
2018-03-29T14:05:46.646Z,998.77
2018-03-29T14:06:56.621Z,998.95
2018-03-29T14:08:06.329Z,998.89
2018-03-29T14:09:16.053Z,998.86
2018-03-29T14:10:25.767Z,998.88
2018-03-29T14:11:35.584Z,998.87
2018-03-29T14:12:45.321Z,999.03
2018-03-29T14:13:55.294Z,998.97
2018-03-29T14:15:04.748Z,999.22
2018-03-29T14:16:13.676Z,998.95
2018-03-29T14:17:22.863Z,998.98
2018-03-29T14:18:32.845Z,999.2
2018-03-29T14:19:42.293Z,998.86
2018-03-29T14:20:52.007Z,998.96
2018-03-29T14:22:01.710Z,998.95
2018-03-29T14:23:11.153Z,998.89
2018-03-29T14:24:20.872Z,998.96
2018-03-29T14:25:30.320Z,999.01
2018-03-29T14:26:39.766Z,998.87
2018-03-29T14:27:49.757Z,999.1
2018-03-29T14:28:59.217Z,998.97
2018-03-29T14:30:09.203Z,998.86
2018-03-29T14:31:19.178Z,998.86
2018-03-29T14:32:28.908Z,998.82
2018-03-29T14:33:38.892Z,998.98